Terminal Aerodrome Forecast
Issued by NWS Charleston, WV

Current Version | Previous Version | Text Only | Print | Product List | Glossary Off
Versions: 1 2 3 4 5 6 7 8 9 10 11 12 13 14 15 16 17 18 19 20 21 22 23 24 25 26

000
FTUS41 KRLX 240200 AAA
TAFHTS
TAF AMD
KHTS 240204Z 2402/2424 00000KT P6SM SKC
     FM240700 00000KT 5SM BR SCT200
     FM240800 00000KT 2SM BR SCT001
     FM240900 00000KT 1/4SM FG VV001
     FM241300 00000KT 2SM BR BKN003
     FM241400 VRB03KT 5SM BR SCT200
     FM241500 25004KT P6SM SCT150=

USA.gov is the U.S. government's official web portal to all federal, state and local government web resources and services.